sensor_id;sensor_type;location;lat;lon;timestamp;pressure;altitude;pressure_sealevel;temperature;humidity
76052;BME280;64751;48.708;9.710;2023-03-21T00:01:48;97845.25;;;8.17;91.88
76052;BME280;64751;48.708;9.710;2023-03-21T00:04:16;97847.06;;;8.16;89.67
76052;BME280;64751;48.708;9.710;2023-03-21T00:06:43;97832.84;;;8.12;91.29
76052;BME280;64751;48.708;9.710;2023-03-21T00:09:11;97844.44;;;8.16;88.57
76052;BME280;64751;48.708;9.710;2023-03-21T00:11:39;97837.34;;;8.17;90.26
76052;BME280;64751;48.708;9.710;2023-03-21T00:14:06;97836.53;;;8.16;92.27
76052;BME280;64751;48.708;9.710;2023-03-21T00:16:41;97832.63;;;8.14;90.98
76052;BME280;64751;48.708;9.710;2023-03-21T00:19:11;97826.56;;;8.13;88.48
76052;BME280;64751;48.708;9.710;2023-03-21T00:21:39;97815.50;;;8.11;87.62
76052;BME280;64751;48.708;9.710;2023-03-21T00:24:07;97814.69;;;8.11;89.51
76052;BME280;64751;48.708;9.710;2023-03-21T00:26:35;97814.38;;;8.07;87.64
76052;BME280;64751;48.708;9.710;2023-03-21T00:29:03;97817.59;;;8.09;88.61
76052;BME280;64751;48.708;9.710;2023-03-21T00:31:31;97821.25;;;8.08;87.69
76052;BME280;64751;48.708;9.710;2023-03-21T00:34:00;97813.84;;;8.05;88.77
76052;BME280;64751;48.708;9.710;2023-03-21T00:36:30;97815.16;;;8.02;87.78
76052;BME280;64751;48.708;9.710;2023-03-21T00:38:58;97815.72;;;8.04;86.41
76052;BME280;64751;48.708;9.710;2023-03-21T00:41:26;97808.31;;;8.01;87.15
76052;BME280;64751;48.708;9.710;2023-03-21T00:43:54;97814.63;;;8.00;87.46
76052;BME280;64751;48.708;9.710;2023-03-21T00:46:22;97810.66;;;7.98;84.34
76052;BME280;64751;48.708;9.710;2023-03-21T00:48:50;97814.34;;;7.97;86.52
76052;BME280;64751;48.708;9.710;2023-03-21T00:51:21;97809.06;;;7.97;85.53
76052;BME280;64751;48.708;9.710;2023-03-21T00:53:52;97809.06;;;7.97;83.41
76052;BME280;64751;48.708;9.710;2023-03-21T00:56:20;97813.81;;;7.95;83.74
76052;BME280;64751;48.708;9.710;2023-03-21T00:58:49;97804.31;;;7.94;84.07
76052;BME280;64751;48.708;9.710;2023-03-21T01:01:17;97801.66;;;7.89;82.37
76052;BME280;64751;48.708;9.710;2023-03-21T01:03:45;97800.13;;;7.93;83.61
76052;BME280;64751;48.708;9.710;2023-03-21T01:06:18;97789.34;;;7.94;83.58
76052;BME280;64751;48.708;9.710;2023-03-21T01:08:47;97787.25;;;7.96;82.62
76052;BME280;64751;48.708;9.710;2023-03-21T01:11:17;97790.41;;;7.98;82.64
76052;BME280;64751;48.708;9.710;2023-03-21T01:13:45;97784.34;;;7.98;82.29
76052;BME280;64751;48.708;9.710;2023-03-21T01:16:13;97791.22;;;7.99;81.93
76052;BME280;64751;48.708;9.710;2023-03-21T01:18:40;97790.19;;;8.00;82.14
76052;BME280;64751;48.708;9.710;2023-03-21T01:21:10;97788.31;;;8.00;82.66
76052;BME280;64751;48.708;9.710;2023-03-21T01:23:41;97786.22;;;8.02;81.97
76052;BME280;64751;48.708;9.710;2023-03-21T01:26:10;97790.19;;;8.05;81.33
76052;BME280;64751;48.708;9.710;2023-03-21T01:28:40;97777.25;;;7.98;81.86
76052;BME280;64751;48.708;9.710;2023-03-21T01:31:11;97780.69;;;7.99;82.81
76052;BME280;64751;48.708;9.710;2023-03-21T01:33:39;97777.78;;;7.95;83.02
76052;BME280;64751;48.708;9.710;2023-03-21T01:36:07;97773.28;;;7.96;81.17
76052;BME280;64751;48.708;9.710;2023-03-21T01:38:36;97780.16;;;7.97;80.81
76052;BME280;64751;48.708;9.710;2023-03-21T01:41:05;97778.59;;;8.01;80.60
76052;BME280;64751;48.708;9.710;2023-03-21T01:43:35;97781.53;;;8.04;81.38
76052;BME280;64751;48.708;9.710;2023-03-21T01:46:33;97778.63;;;8.06;80.11
76052;BME280;64751;48.708;9.710;2023-03-21T01:49:15;97773.91;;;8.08;80.89
76052;BME280;64751;48.708;9.710;2023-03-21T01:51:52;97774.44;;;8.10;81.04
76052;BME280;64751;48.708;9.710;2023-03-21T01:54:24;97772.63;;;8.11;80.32
76052;BME280;64751;48.708;9.710;2023-03-21T01:56:57;97768.91;;;8.12;79.81
76052;BME280;64751;48.708;9.710;2023-03-21T01:59:28;97774.75;;;8.14;80.10
76052;BME280;64751;48.708;9.710;2023-03-21T02:02:19;97769.22;;;8.15;80.22
76052;BME280;64751;48.708;9.710;2023-03-21T02:05:03;97772.66;;;8.16;80.75
76052;BME280;64751;48.708;9.710;2023-03-21T02:07:32;97767.13;;;8.17;79.97
76052;BME280;64751;48.708;9.710;2023-03-21T02:10:06;97766.84;;;8.19;79.77
76052;BME280;64751;48.708;9.710;2023-03-21T02:12:37;97771.09;;;8.20;79.82
76052;BME280;64751;48.708;9.710;2023-03-21T02:15:07;97766.63;;;8.20;79.59
76052;BME280;64751;48.708;9.710;2023-03-21T02:17:51;97764.75;;;8.21;80.41
76052;BME280;64751;48.708;9.710;2023-03-21T02:20:49;97761.38;;;8.20;79.80
76052;BME280;64751;48.708;9.710;2023-03-21T02:23:45;97755.00;;;8.16;80.47
76052;BME280;64751;48.708;9.710;2023-03-21T02:26:45;97756.06;;;8.15;80.41
76052;BME280;64751;48.708;9.710;2023-03-21T02:29:42;97753.44;;;8.15;79.88
76052;BME280;64751;48.708;9.710;2023-03-21T02:32:24;97746.06;;;8.17;79.55
76052;BME280;64751;48.708;9.710;2023-03-21T02:35:07;97745.00;;;8.13;79.46
76052;BME280;64751;48.708;9.710;2023-03-21T02:37:44;97744.97;;;8.08;80.30
76052;BME280;64751;48.708;9.710;2023-03-21T02:40:19;97735.47;;;8.02;80.44
76052;BME280;64751;48.708;9.710;2023-03-21T02:42:54;97737.63;;;8.10;79.64
76052;BME280;64751;48.708;9.710;2023-03-21T02:45:39;97737.34;;;8.12;79.68
76052;BME280;64751;48.708;9.710;2023-03-21T02:48:11;97732.09;;;8.12;79.90
76052;BME280;64751;48.708;9.710;2023-03-21T02:50:42;97735.81;;;8.16;80.26
76052;BME280;64751;48.708;9.710;2023-03-21T02:53:17;97736.06;;;8.14;80.27
76052;BME280;64751;48.708;9.710;2023-03-21T02:55:47;97732.91;;;8.12;79.80
76052;BME280;64751;48.708;9.710;2023-03-21T02:58:19;97734.75;;;8.17;80.64
76052;BME280;64751;48.708;9.710;2023-03-21T03:00:52;97731.84;;;8.13;80.22
76052;BME280;64751;48.708;9.710;2023-03-21T03:03:37;97741.84;;;8.11;80.26
76052;BME280;64751;48.708;9.710;2023-03-21T03:06:09;97740.25;;;8.10;80.20
76052;BME280;64751;48.708;9.710;2023-03-21T03:08:47;97741.28;;;8.04;80.29
76052;BME280;64751;48.708;9.710;2023-03-21T03:11:23;97741.28;;;8.04;80.13
76052;BME280;64751;48.708;9.710;2023-03-21T03:14:05;97737.31;;;8.01;80.34
76052;BME280;64751;48.708;9.710;2023-03-21T03:16:38;97734.41;;;8.03;80.53
76052;BME280;64751;48.708;9.710;2023-03-21T03:19:15;97727.06;;;8.00;80.35
76052;BME280;64751;48.708;9.710;2023-03-21T03:21:50;97735.50;;;8.07;80.45
76052;BME280;64751;48.708;9.710;2023-03-21T03:24:23;97737.63;;;8.10;80.93
76052;BME280;64751;48.708;9.710;2023-03-21T03:26:55;97739.22;;;8.11;80.32
76052;BME280;64751;48.708;9.710;2023-03-21T03:29:27;97740.00;;;8.12;80.62
76052;BME280;64751;48.708;9.710;2023-03-21T03:31:59;97730.78;;;8.09;80.48
76052;BME280;64751;48.708;9.710;2023-03-21T03:34:35;97733.44;;;8.09;79.84
76052;BME280;64751;48.708;9.710;2023-03-21T03:37:07;97735.00;;;8.10;79.97
76052;BME280;64751;48.708;9.710;2023-03-21T03:39:40;97734.19;;;8.10;80.05
76052;BME280;64751;48.708;9.710;2023-03-21T03:42:14;97730.75;;;8.04;80.47
76052;BME280;64751;48.708;9.710;2023-03-21T03:44:46;97738.69;;;8.09;80.33
76052;BME280;64751;48.708;9.710;2023-03-21T03:47:20;97737.63;;;8.10;79.74
76052;BME280;64751;48.708;9.710;2023-03-21T03:49:59;97734.72;;;8.07;80.43
76052;BME280;64751;48.708;9.710;2023-03-21T03:52:32;97727.59;;;8.07;80.62
76052;BME280;64751;48.708;9.710;2023-03-21T03:55:11;97724.97;;;8.07;80.29
76052;BME280;64751;48.708;9.710;2023-03-21T03:57:42;97722.59;;;8.05;80.45
76052;BME280;64751;48.708;9.710;2023-03-21T04:00:12;97726.78;;;8.01;81.31
76052;BME280;64751;48.708;9.710;2023-03-21T04:02:47;97722.34;;;8.02;81.08
76052;BME280;64751;48.708;9.710;2023-03-21T04:05:19;97717.84;;;8.02;80.28
76052;BME280;64751;48.708;9.710;2023-03-21T04:07:47;97713.66;;;8.01;79.95
76052;BME280;64751;48.708;9.710;2023-03-21T04:10:19;97712.34;;;8.04;80.30
76052;BME280;64751;48.708;9.710;2023-03-21T04:12:47;97707.88;;;8.04;80.58
76052;BME280;64751;48.708;9.710;2023-03-21T04:15:32;97712.09;;;8.05;80.01
76052;BME280;64751;48.708;9.710;2023-03-21T04:18:07;97711.06;;;8.07;80.95
76052;BME280;64751;48.708;9.710;2023-03-21T04:20:34;97703.66;;;8.03;80.74
76052;BME280;64751;48.708;9.710;2023-03-21T04:23:02;97702.88;;;8.03;80.27
76052;BME280;64751;48.708;9.710;2023-03-21T04:25:33;97712.09;;;8.05;79.78
76052;BME280;64751;48.708;9.710;2023-03-21T04:28:04;97709.72;;;8.04;79.82
76052;BME280;64751;48.708;9.710;2023-03-21T04:30:42;97702.88;;;8.03;79.65
76052;BME280;64751;48.708;9.710;2023-03-21T04:33:15;97693.63;;;7.95;80.45
76052;BME280;64751;48.708;9.710;2023-03-21T04:35:51;97707.06;;;7.99;81.11
76052;BME280;64751;48.708;9.710;2023-03-21T04:38:22;97705.19;;;7.94;80.90
76052;BME280;64751;48.708;9.710;2023-03-21T04:40:51;97704.66;;;7.92;80.59
76052;BME280;64751;48.708;9.710;2023-03-21T04:43:21;97709.66;;;7.94;81.27
76052;BME280;64751;48.708;9.710;2023-03-21T04:45:49;97710.44;;;7.94;80.77
76052;BME280;64751;48.708;9.710;2023-03-21T04:48:18;97701.75;;;7.94;80.07
76052;BME280;64751;48.708;9.710;2023-03-21T04:50:51;97706.00;;;7.95;80.60
76052;BME280;64751;48.708;9.710;2023-03-21T04:53:19;97706.00;;;7.95;80.27
76052;BME280;64751;48.708;9.710;2023-03-21T04:55:46;97704.94;;;7.96;80.63
76052;BME280;64751;48.708;9.710;2023-03-21T04:58:16;97709.16;;;7.97;80.86
76052;BME280;64751;48.708;9.710;2023-03-21T05:00:45;97703.91;;;7.97;80.41
76052;BME280;64751;48.708;9.710;2023-03-21T05:03:12;97701.75;;;7.94;80.89
76052;BME280;64751;48.708;9.710;2023-03-21T05:05:45;97691.44;;;7.82;80.94
76052;BME280;64751;48.708;9.710;2023-03-21T05:08:13;97704.13;;;7.90;80.51
76052;BME280;64751;48.708;9.710;2023-03-21T05:10:42;97716.22;;;7.91;80.32
76052;BME280;64751;48.708;9.710;2023-03-21T05:13:10;97710.41;;;7.89;81.25
76052;BME280;64751;48.708;9.710;2023-03-21T05:15:39;97711.19;;;7.85;81.25
76052;BME280;64751;48.708;9.710;2023-03-21T05:18:06;97711.44;;;7.83;80.42
76052;BME280;64751;48.708;9.710;2023-03-21T05:20:42;97714.06;;;7.83;80.27
76052;BME280;64751;48.708;9.710;2023-03-21T05:23:10;97715.94;;;7.88;80.79
76052;BME280;64751;48.708;9.710;2023-03-21T05:25:38;97710.41;;;7.84;80.74
76052;BME280;64751;48.708;9.710;2023-03-21T05:28:14;97704.84;;;7.81;80.38
76052;BME280;64751;48.708;9.710;2023-03-21T05:30:46;97715.94;;;7.88;81.36
76052;BME280;64751;48.708;9.710;2023-03-21T05:33:14;97721.19;;;7.88;80.61
76052;BME280;64751;48.708;9.710;2023-03-21T05:35:42;97712.28;;;7.89;80.15
76052;BME280;64751;48.708;9.710;2023-03-21T05:38:11;97715.41;;;7.86;80.72
76052;BME280;64751;48.708;9.710;2023-03-21T05:40:49;97712.28;;;7.89;81.29
76052;BME280;64751;48.708;9.710;2023-03-21T05:43:17;97712.00;;;7.90;80.58
76052;BME280;64751;48.708;9.710;2023-03-21T05:45:47;97717.00;;;7.92;80.37
76052;BME280;64751;48.708;9.710;2023-03-21T05:48:16;97718.59;;;7.93;81.16
76052;BME280;64751;48.708;9.710;2023-03-21T05:51:10;97727.56;;;7.97;80.86
76052;BME280;64751;48.708;9.710;2023-03-21T05:53:43;97725.72;;;7.97;80.90
76052;BME280;64751;48.708;9.710;2023-03-21T05:56:14;97732.31;;;8.00;80.06
76052;BME280;64751;48.708;9.710;2023-03-21T05:59:03;97727.59;;;8.02;80.04
76052;BME280;64751;48.708;9.710;2023-03-21T06:01:38;97724.97;;;8.07;80.04
76052;BME280;64751;48.708;9.710;2023-03-21T06:04:10;97729.47;;;8.12;80.40
76052;BME280;64751;48.708;9.710;2023-03-21T06:06:39;97709.47;;;8.05;80.42
76052;BME280;64751;48.708;9.710;2023-03-21T06:09:06;97731.38;;;8.21;80.28
76052;BME280;64751;48.708;9.710;2023-03-21T06:11:36;97728.22;;;8.24;79.52
76052;BME280;64751;48.708;9.710;2023-03-21T06:14:30;97724.59;;;8.30;79.66
76052;BME280;64751;48.708;9.710;2023-03-21T06:17:25;97728.81;;;8.36;79.96
76052;BME280;64751;48.708;9.710;2023-03-21T06:19:58;97720.72;;;8.43;79.83
76052;BME280;64751;48.708;9.710;2023-03-21T06:22:36;97719.91;;;8.47;79.14
76052;BME280;64751;48.708;9.710;2023-03-21T06:25:06;97719.16;;;8.52;79.59
76052;BME280;64751;48.708;9.710;2023-03-21T06:27:35;97722.88;;;8.56;78.87
76052;BME280;64751;48.708;9.710;2023-03-21T06:30:05;97727.34;;;8.60;79.83
76052;BME280;64751;48.708;9.710;2023-03-21T06:32:41;97726.81;;;8.63;79.89
76052;BME280;64751;48.708;9.710;2023-03-21T06:35:13;97725.81;;;8.69;78.99
76052;BME280;64751;48.708;9.710;2023-03-21T06:37:42;97729.22;;;8.75;78.39
76052;BME280;64751;48.708;9.710;2023-03-21T06:40:11;97730.81;;;8.81;78.60
76052;BME280;64751;48.708;9.710;2023-03-21T06:42:39;97731.91;;;8.85;78.38
76052;BME280;64751;48.708;9.710;2023-03-21T06:45:10;97730.03;;;8.86;78.53
76052;BME280;64751;48.708;9.710;2023-03-21T06:47:37;97732.16;;;8.89;78.69
76052;BME280;64751;48.708;9.710;2023-03-21T06:50:12;97730.84;;;8.91;79.78
76052;BME280;64751;48.708;9.710;2023-03-21T06:52:43;97729.00;;;8.97;78.91
76052;BME280;64751;48.708;9.710;2023-03-21T06:55:12;97736.13;;;9.01;78.03
76052;BME280;64751;48.708;9.710;2023-03-21T06:57:40;97739.31;;;9.03;79.34
76052;BME280;64751;48.708;9.710;2023-03-21T07:00:09;97736.94;;;9.12;80.21
76052;BME280;64751;48.708;9.710;2023-03-21T07:02:42;97729.03;;;9.22;79.75
76052;BME280;64751;48.708;9.710;2023-03-21T07:05:17;97731.44;;;9.33;79.26
76052;BME280;64751;48.708;9.710;2023-03-21T07:07:44;97729.84;;;9.47;78.18
76052;BME280;64751;48.708;9.710;2023-03-21T07:10:12;97727.47;;;9.56;78.56
76052;BME280;64751;48.708;9.710;2023-03-21T07:12:45;97723.78;;;9.67;78.37
76052;BME280;64751;48.708;9.710;2023-03-21T07:15:20;97732.72;;;9.76;77.62
76052;BME280;64751;48.708;9.710;2023-03-21T07:17:48;97729.00;;;9.87;77.92
76052;BME280;64751;48.708;9.710;2023-03-21T07:20:17;97734.81;;;9.99;76.48
76052;BME280;64751;48.708;9.710;2023-03-21T07:22:45;97720.81;;;10.04;75.19
76052;BME280;64751;48.708;9.710;2023-03-21T07:25:13;97720.50;;;10.26;75.33
76052;BME280;64751;48.708;9.710;2023-03-21T07:27:42;97728.63;;;10.39;74.23
76052;BME280;64751;48.708;9.710;2023-03-21T07:30:11;97721.47;;;10.50;73.99
76052;BME280;64751;48.708;9.710;2023-03-21T07:32:39;97717.72;;;10.61;72.49
76052;BME280;64751;48.708;9.710;2023-03-21T07:35:09;97710.28;;;10.68;71.04
76052;BME280;64751;48.708;9.710;2023-03-21T07:37:39;97721.28;;;10.85;71.33
76052;BME280;64751;48.708;9.710;2023-03-21T07:40:08;97720.63;;;11.03;70.40
76052;BME280;64751;48.708;9.710;2023-03-21T07:42:39;97711.56;;;11.14;67.63
76052;BME280;64751;48.708;9.710;2023-03-21T07:45:09;97706.78;;;11.21;67.57
76052;BME280;64751;48.708;9.710;2023-03-21T07:47:40;97715.16;;;11.33;67.26
76052;BME280;64751;48.708;9.710;2023-03-21T07:50:10;97713.78;;;11.41;65.94
76052;BME280;64751;48.708;9.710;2023-03-21T07:52:45;97717.94;;;11.47;66.68
76052;BME280;64751;48.708;9.710;2023-03-21T07:55:12;97713.34;;;11.57;65.84
76052;BME280;64751;48.708;9.710;2023-03-21T07:57:42;97709.59;;;11.69;65.43
76052;BME280;64751;48.708;9.710;2023-03-21T08:00:10;97711.63;;;11.77;65.33
76052;BME280;64751;48.708;9.710;2023-03-21T08:02:42;97714.63;;;11.94;64.89
76052;BME280;64751;48.708;9.710;2023-03-21T08:05:09;97708.38;;;12.08;63.71
76052;BME280;64751;48.708;9.710;2023-03-21T08:07:37;97718.03;;;12.23;63.23
76052;BME280;64751;48.708;9.710;2023-03-21T08:10:07;97717.19;;;12.27;63.26
76052;BME280;64751;48.708;9.710;2023-03-21T08:12:36;97716.66;;;12.49;62.46
76052;BME280;64751;48.708;9.710;2023-03-21T08:15:05;97709.66;;;12.58;62.04
76052;BME280;64751;48.708;9.710;2023-03-21T08:17:32;97707.25;;;12.62;61.69
76052;BME280;64751;48.708;9.710;2023-03-21T08:20:01;97710.75;;;12.57;61.35
76052;BME280;64751;48.708;9.710;2023-03-21T08:22:32;97706.44;;;12.61;61.85
76052;BME280;64751;48.708;9.710;2023-03-21T08:25:00;97712.59;;;12.57;61.35
76052;BME280;64751;48.708;9.710;2023-03-21T08:27:31;97710.03;;;12.70;60.88
76052;BME280;64751;48.708;9.710;2023-03-21T08:29:59;97702.53;;;12.77;59.61
76052;BME280;64751;48.708;9.710;2023-03-21T08:32:27;97697.28;;;12.72;59.62
76052;BME280;64751;48.708;9.710;2023-03-21T08:34:57;97696.50;;;12.72;59.70
76052;BME280;64751;48.708;9.710;2023-03-21T08:37:25;97695.63;;;12.76;59.61
76052;BME280;64751;48.708;9.710;2023-03-21T08:39:53;97700.94;;;12.76;59.36
76052;BME280;64751;48.708;9.710;2023-03-21T08:42:21;97695.06;;;12.79;59.51
76052;BME280;64751;48.708;9.710;2023-03-21T08:44:50;97688.19;;;12.78;60.39
76052;BME280;64751;48.708;9.710;2023-03-21T08:47:17;97692.03;;;12.67;58.21
76052;BME280;64751;48.708;9.710;2023-03-21T08:49:45;97688.34;;;12.68;57.66
76052;BME280;64751;48.708;9.710;2023-03-21T08:52:12;97689.09;;;12.69;58.09
76052;BME280;64751;48.708;9.710;2023-03-21T08:54:40;97689.69;;;12.66;56.97
76052;BME280;64751;48.708;9.710;2023-03-21T08:57:09;97684.16;;;12.62;57.88
76052;BME280;64751;48.708;9.710;2023-03-21T08:59:37;97684.16;;;12.62;58.77
76052;BME280;64751;48.708;9.710;2023-03-21T09:02:06;97687.34;;;12.64;57.79
76052;BME280;64751;48.708;9.710;2023-03-21T09:04:33;97685.44;;;12.65;54.98
76052;BME280;64751;48.708;9.710;2023-03-21T09:07:01;97687.53;;;12.68;54.96
76052;BME280;64751;48.708;9.710;2023-03-21T09:09:30;97685.69;;;12.68;55.63
76052;BME280;64751;48.708;9.710;2023-03-21T09:11:58;97688.91;;;12.65;55.95
76052;BME280;64751;48.708;9.710;2023-03-21T09:14:26;97688.41;;;12.63;55.83
76052;BME280;64751;48.708;9.710;2023-03-21T09:16:53;97685.53;;;12.60;57.00
76052;BME280;64751;48.708;9.710;2023-03-21T09:19:22;97679.22;;;12.56;57.96
76052;BME280;64751;48.708;9.710;2023-03-21T09:21:50;97679.94;;;12.61;58.11
76052;BME280;64751;48.708;9.710;2023-03-21T09:24:19;97682.31;;;12.63;57.50
76052;BME280;64751;48.708;9.710;2023-03-21T09:26:47;97672.78;;;12.62;56.90
76052;BME280;64751;48.708;9.710;2023-03-21T09:29:16;97685.19;;;12.66;56.75
76052;BME280;64751;48.708;9.710;2023-03-21T09:31:46;97664.63;;;12.58;57.57
76052;BME280;64751;48.708;9.710;2023-03-21T09:34:13;97679.94;;;12.61;56.42
76052;BME280;64751;48.708;9.710;2023-03-21T09:36:43;97679.44;;;12.59;57.21
76052;BME280;64751;48.708;9.710;2023-03-21T09:39:13;97674.66;;;12.61;56.54
76052;BME280;64751;48.708;9.710;2023-03-21T09:42:00;97676.22;;;12.62;57.31
76052;BME280;64751;48.708;9.710;2023-03-21T09:44:40;97671.06;;;12.52;55.93
76052;BME280;64751;48.708;9.710;2023-03-21T09:47:14;97670.56;;;12.50;55.20
76052;BME280;64751;48.708;9.710;2023-03-21T09:49:48;97671.34;;;12.51;56.83
76052;BME280;64751;48.708;9.710;2023-03-21T09:52:20;97673.28;;;12.64;58.85
76052;BME280;64751;48.708;9.710;2023-03-21T09:54:49;97677.16;;;12.71;58.36
76052;BME280;64751;48.708;9.710;2023-03-21T09:57:26;97677.88;;;12.77;57.00
76052;BME280;64751;48.708;9.710;2023-03-21T09:59:58;97645.94;;;12.68;57.03
76052;BME280;64751;48.708;9.710;2023-03-21T10:02:39;97664.63;;;12.77;57.19
76052;BME280;64751;48.708;9.710;2023-03-21T10:05:15;97659.91;;;12.92;61.60
76052;BME280;64751;48.708;9.710;2023-03-21T10:07:50;97655.03;;;12.99;58.37
76052;BME280;64751;48.708;9.710;2023-03-21T10:10:22;97650.50;;;13.00;57.29
76052;BME280;64751;48.708;9.710;2023-03-21T10:12:53;97651.00;;;13.02;58.09
76052;BME280;64751;48.708;9.710;2023-03-21T10:15:23;97655.47;;;13.06;57.86
76052;BME280;64751;48.708;9.710;2023-03-21T10:17:56;97653.03;;;13.10;56.92
76052;BME280;64751;48.708;9.710;2023-03-21T10:20:26;97643.69;;;13.13;56.01
76052;BME280;64751;48.708;9.710;2023-03-21T10:22:56;97642.13;;;13.12;54.42
76052;BME280;64751;48.708;9.710;2023-03-21T10:25:29;97635.56;;;13.23;56.73
76052;BME280;64751;48.708;9.710;2023-03-21T10:27:58;97633.25;;;13.35;55.14
76052;BME280;64751;48.708;9.710;2023-03-21T10:30:38;97635.44;;;13.46;55.93
76052;BME280;64751;48.708;9.710;2023-03-21T10:33:09;97619.16;;;13.53;56.78
76052;BME280;64751;48.708;9.710;2023-03-21T10:35:39;97628.00;;;13.62;55.48
76052;BME280;64751;48.708;9.710;2023-03-21T10:38:14;97618.66;;;13.64;55.43
76052;BME280;64751;48.708;9.710;2023-03-21T10:40:43;97626.72;;;13.73;56.11
76052;BME280;64751;48.708;9.710;2023-03-21T10:43:20;97626.66;;;13.78;54.38
76052;BME280;64751;48.708;9.710;2023-03-21T10:45:56;97618.78;;;13.73;53.54
76052;BME280;64751;48.708;9.710;2023-03-21T10:48:23;97594.41;;;13.71;52.49
76052;BME280;64751;48.708;9.710;2023-03-21T10:50:53;97609.53;;;13.84;52.63
76052;BME280;64751;48.708;9.710;2023-03-21T10:53:31;97604.63;;;13.91;53.60
76052;BME280;64751;48.708;9.710;2023-03-21T10:56:05;97609.91;;;14.05;52.88
76052;BME280;64751;48.708;9.710;2023-03-21T10:58:36;97606.28;;;14.14;54.55
76052;BME280;64751;48.708;9.710;2023-03-21T11:01:07;97614.13;;;14.19;53.94
76052;BME280;64751;48.708;9.710;2023-03-21T11:03:39;97615.63;;;14.25;53.68
76052;BME280;64751;48.708;9.710;2023-03-21T11:06:14;97611.31;;;14.29;53.47
76052;BME280;64751;48.708;9.710;2023-03-21T11:08:46;97610.09;;;14.35;54.48
76052;BME280;64751;48.708;9.710;2023-03-21T11:11:20;97604.19;;;14.38;54.19
76052;BME280;64751;48.708;9.710;2023-03-21T11:13:56;97609.91;;;14.45;53.72
76052;BME280;64751;48.708;9.710;2023-03-21T11:16:29;97605.44;;;14.55;53.46
76052;BME280;64751;48.708;9.710;2023-03-21T11:19:00;97608.44;;;14.62;52.87
76052;BME280;64751;48.708;9.710;2023-03-21T11:21:34;97599.19;;;14.73;52.32
76052;BME280;64751;48.708;9.710;2023-03-21T11:24:05;97595.53;;;14.69;51.50
76052;BME280;64751;48.708;9.710;2023-03-21T11:26:37;97589.53;;;14.77;52.19
76052;BME280;64751;48.708;9.710;2023-03-21T11:29:19;97584.25;;;14.85;53.63
76052;BME280;64751;48.708;9.710;2023-03-21T11:31:50;97585.53;;;14.88;54.63
76052;BME280;64751;48.708;9.710;2023-03-21T11:34:27;97583.94;;;14.87;53.72
76052;BME280;64751;48.708;9.710;2023-03-21T11:36:59;97587.09;;;14.89;52.93
76052;BME280;64751;48.708;9.710;2023-03-21T11:39:32;97580.22;;;14.88;51.80
76052;BME280;64751;48.708;9.710;2023-03-21T11:42:00;97562.13;;;14.76;51.63
76052;BME280;64751;48.708;9.710;2023-03-21T11:44:30;97568.91;;;14.82;51.97
76052;BME280;64751;48.708;9.710;2023-03-21T11:46:59;97574.69;;;14.84;52.26
76052;BME280;64751;48.708;9.710;2023-03-21T11:49:27;97564.91;;;14.93;52.23
76052;BME280;64751;48.708;9.710;2023-03-21T11:52:02;97560.06;;;14.95;50.82
76052;BME280;64751;48.708;9.710;2023-03-21T11:54:58;97559.41;;;15.12;51.83
76052;BME280;64751;48.708;9.710;2023-03-21T11:57:34;97555.03;;;15.16;51.39
76052;BME280;64751;48.708;9.710;2023-03-21T12:00:13;97559.78;;;15.27;50.80
76052;BME280;64751;48.708;9.710;2023-03-21T12:03:05;97553.44;;;15.37;50.06
76052;BME280;64751;48.708;9.710;2023-03-21T12:05:36;97551.63;;;15.46;49.05
76052;BME280;64751;48.708;9.710;2023-03-21T12:08:08;97554.00;;;15.56;51.08
76052;BME280;64751;48.708;9.710;2023-03-21T12:10:51;97541.50;;;15.65;50.00
76052;BME280;64751;48.708;9.710;2023-03-21T12:13:33;97542.78;;;15.76;49.62
76052;BME280;64751;48.708;9.710;2023-03-21T12:16:19;97537.00;;;15.83;50.59
76052;BME280;64751;48.708;9.710;2023-03-21T12:19:01;97535.00;;;15.88;50.95
76052;BME280;64751;48.708;9.710;2023-03-21T12:21:40;97537.53;;;15.93;50.09
76052;BME280;64751;48.708;9.710;2023-03-21T12:24:14;97527.16;;;16.01;50.69
76052;BME280;64751;48.708;9.710;2023-03-21T12:26:51;97521.22;;;16.04;49.07
76052;BME280;64751;48.708;9.710;2023-03-21T12:29:32;97517.94;;;16.07;49.00
76052;BME280;64751;48.708;9.710;2023-03-21T12:32:15;97516.84;;;16.08;49.37
76052;BME280;64751;48.708;9.710;2023-03-21T12:35:12;97520.94;;;16.14;49.63
76052;BME280;64751;48.708;9.710;2023-03-21T12:37:51;97507.63;;;16.14;48.55
76052;BME280;64751;48.708;9.710;2023-03-21T12:40:26;97501.19;;;16.15;48.52
76052;BME280;64751;48.708;9.710;2023-03-21T12:43:12;97498.66;;;16.10;48.36
76052;BME280;64751;48.708;9.710;2023-03-21T12:45:47;97499.91;;;16.12;49.35
76052;BME280;64751;48.708;9.710;2023-03-21T12:48:19;97501.97;;;16.15;49.87
76052;BME280;64751;48.708;9.710;2023-03-21T12:50:50;97500.09;;;16.16;50.54
76052;BME280;64751;48.708;9.710;2023-03-21T12:53:33;97496.00;;;16.10;49.42
76052;BME280;64751;48.708;9.710;2023-03-21T12:56:06;97496.31;;;16.08;48.03
76052;BME280;64751;48.708;9.710;2023-03-21T12:58:43;97498.50;;;16.06;48.66
76052;BME280;64751;48.708;9.710;2023-03-21T13:01:14;97496.94;;;16.05;49.90
76052;BME280;64751;48.708;9.710;2023-03-21T13:03:45;97497.25;;;16.04;50.03
76052;BME280;64751;48.708;9.710;2023-03-21T13:06:17;97491.13;;;15.94;48.71
76052;BME280;64751;48.708;9.710;2023-03-21T13:08:49;97487.19;;;15.92;49.78
76052;BME280;64751;48.708;9.710;2023-03-21T13:11:21;97495.50;;;15.90;50.04
76052;BME280;64751;48.708;9.710;2023-03-21T13:13:54;97479.22;;;15.83;50.25
76052;BME280;64751;48.708;9.710;2023-03-21T13:16:26;97485.78;;;15.77;49.84
76052;BME280;64751;48.708;9.710;2023-03-21T13:19:02;97481.06;;;15.74;50.12
76052;BME280;64751;48.708;9.710;2023-03-21T13:21:45;97477.13;;;15.72;50.49
76052;BME280;64751;48.708;9.710;2023-03-21T13:24:24;97475.28;;;15.72;50.74
76052;BME280;64751;48.708;9.710;2023-03-21T13:26:57;97476.34;;;15.71;50.19
76052;BME280;64751;48.708;9.710;2023-03-21T13:29:31;97478.53;;;15.69;50.68
76052;BME280;64751;48.708;9.710;2023-03-21T13:32:07;97481.84;;;15.66;50.52
76052;BME280;64751;48.708;9.710;2023-03-21T13:34:37;97469.00;;;15.60;50.62